Time;durP1;ratioP1;P1;durP2;ratioP2;P2;SDS_P1;SDS_P2;PMS_P1;PMS_P2;Temp;Humidity;BMP_temperature;BMP_pressure;BME280_temperature;BME280_humidity;BME280_pressure;Samples;Min_cycle;Max_cycle;Signal;HPM_P1;HPM_P2
2022/05/06 00:00:08;;;;;;;30.95;17.23;;;;;;;;;;5043186;28;20025;-81
2022/05/06 00:02:33;;;;;;;31.92;17.38;;;;;;;;;;5058802;28;20035;-81
2022/05/06 00:04:59;;;;;;;30.80;16.88;;;;;;;;;;5042390;28;20029;-81
2022/05/06 00:07:24;;;;;;;38.33;17.58;;;;;;;;;;5058514;28;20025;-80
2022/05/06 00:09:50;;;;;;;32.35;17.45;;;;;;;;;;5039040;28;20112;-80
2022/05/06 00:12:18;;;;;;;33.72;17.65;;;;;;;;;;5046687;28;20483;-81
2022/05/06 00:14:44;;;;;;;30.92;17.38;;;;;;;;;;5059167;28;20070;-80
2022/05/06 00:17:09;;;;;;;28.08;17.02;;;;;;;;;;5047252;28;20030;-81
2022/05/06 00:19:35;;;;;;;32.78;17.58;;;;;;;;;;5043165;28;20016;-80
2022/05/06 00:22:00;;;;;;;28.02;17.88;;;;;;;;;;5053725;28;20041;-80
2022/05/06 00:24:26;;;;;;;37.88;19.15;;;;;;;;;;5052607;28;20064;-80
2022/05/06 00:26:51;;;;;;;27.77;18.20;;;;;;;;;;5035338;28;20488;-81
2022/05/06 00:29:17;;;;;;;34.60;18.48;;;;;;;;;;5037910;28;20022;-81
2022/05/06 00:31:42;;;;;;;31.63;19.13;;;;;;;;;;5057231;28;20555;-81
2022/05/06 00:34:09;;;;;;;30.60;18.60;;;;;;;;;;5044110;28;20059;-80
2022/05/06 00:36:35;;;;;;;28.92;16.92;;;;;;;;;;5057698;28;20017;-80
2022/05/06 00:39:00;;;;;;;32.25;18.50;;;;;;;;;;5055385;28;20024;-81
2022/05/06 00:41:25;;;;;;;36.13;18.65;;;;;;;;;;5042847;28;20029;-81
2022/05/06 00:43:51;;;;;;;30.83;17.88;;;;;;;;;;5040499;28;20033;-80
2022/05/06 00:46:16;;;;;;;30.70;17.40;;;;;;;;;;5058498;28;20029;-81
2022/05/06 00:48:45;;;;;;;33.30;17.88;;;;;;;;;;5059644;28;20074;-81
2022/05/06 00:51:11;;;;;;;33.13;18.13;;;;;;;;;;5031449;28;20032;-81
2022/05/06 00:53:38;;;;;;;37.13;20.05;;;;;;;;;;5053146;28;20446;-81
2022/05/06 00:56:07;;;;;;;33.90;18.42;;;;;;;;;;5040389;28;20024;-81
2022/05/06 00:58:33;;;;;;;36.97;18.40;;;;;;;;;;5055177;28;20037;-80
2022/05/06 01:00:59;;;;;;;33.25;17.98;;;;;;;;;;5057974;28;20533;-81
2022/05/06 01:03:24;;;;;;;30.27;17.90;;;;;;;;;;5055728;28;20034;-81
2022/05/06 01:05:50;;;;;;;31.98;19.38;;;;;;;;;;5049742;28;20036;-80
2022/05/06 01:08:16;;;;;;;38.78;18.70;;;;;;;;;;5045346;28;20546;-81
2022/05/06 01:10:42;;;;;;;29.20;17.98;;;;;;;;;;5022492;28;20411;-81
2022/05/06 01:13:08;;;;;;;32.92;19.52;;;;;;;;;;5049827;28;20056;-80
2022/05/06 01:15:33;;;;;;;34.08;17.73;;;;;;;;;;5060124;28;20021;-81
2022/05/06 01:17:59;;;;;;;31.35;18.13;;;;;;;;;;5036470;28;20021;-81
2022/05/06 01:20:25;;;;;;;33.65;18.65;;;;;;;;;;5052609;28;20417;-81
2022/05/06 01:22:53;;;;;;;33.95;18.58;;;;;;;;;;5056562;28;20032;-81
2022/05/06 01:25:23;;;;;;;38.88;19.75;;;;;;;;;;5051372;28;20296;-81
2022/05/06 01:27:52;;;;;;;35.17;18.73;;;;;;;;;;5057255;28;20087;-82
2022/05/06 01:30:42;;;;;;;33.60;18.42;;;;;;;;;;5056545;28;20025;-82
2022/05/06 01:33:09;;;;;;;37.25;19.20;;;;;;;;;;5048441;28;20025;-82
2022/05/06 01:35:39;;;;;;;31.38;18.23;;;;;;;;;;5046121;28;20021;-81
2022/05/06 01:38:06;;;;;;;32.85;18.30;;;;;;;;;;5052014;28;20021;-82
2022/05/06 01:40:47;;;;;;;40.72;18.80;;;;;;;;;;5056461;28;20032;-82
2022/05/06 01:43:15;;;;;;;32.35;17.27;;;;;;;;;;5039255;28;20034;-81
2022/05/06 01:45:42;;;;;;;33.22;18.58;;;;;;;;;;5058266;28;20036;-82
2022/05/06 01:48:09;;;;;;;32.88;18.08;;;;;;;;;;5039263;28;20024;-82
2022/05/06 01:50:39;;;;;;;34.70;17.33;;;;;;;;;;5059660;28;20025;-81
2022/05/06 01:53:07;;;;;;;34.97;18.67;;;;;;;;;;5041828;28;20088;-81
2022/05/06 01:55:32;;;;;;;30.63;17.88;;;;;;;;;;5057504;28;20119;-80
2022/05/06 01:57:58;;;;;;;36.70;17.98;;;;;;;;;;5056867;28;20166;-80
2022/05/06 02:00:24;;;;;;;32.63;16.27;;;;;;;;;;5039444;28;20033;-80
2022/05/06 02:02:49;;;;;;;32.53;17.42;;;;;;;;;;5023995;28;20071;-81
2022/05/06 02:05:18;;;;;;;27.25;16.83;;;;;;;;;;5052302;28;20033;-80
2022/05/06 02:07:48;;;;;;;30.65;17.60;;;;;;;;;;5056586;28;20028;-80
2022/05/06 02:10:15;;;;;;;31.65;18.33;;;;;;;;;;5063746;28;20048;-80
2022/05/06 02:12:41;;;;;;;33.03;17.67;;;;;;;;;;5048904;28;20050;-80
2022/05/06 02:15:07;;;;;;;32.38;18.58;;;;;;;;;;5056831;28;20065;-80
2022/05/06 02:17:32;;;;;;;34.65;17.25;;;;;;;;;;5048381;28;20033;-80
2022/05/06 02:19:58;;;;;;;34.97;17.45;;;;;;;;;;5054961;28;20127;-80
2022/05/06 02:22:27;;;;;;;41.70;18.45;;;;;;;;;;5046271;28;20028;-80
2022/05/06 02:24:53;;;;;;;31.05;18.52;;;;;;;;;;5056041;28;20474;-80
2022/05/06 02:27:18;;;;;;;35.92;18.60;;;;;;;;;;5056632;28;20089;-80
2022/05/06 02:33:12;;;;;;;35.40;17.40;;;;;;;;;;5044666;28;20034;-81
2022/05/06 02:35:13;;;;;;;38.80;16.50;;;;;;;;;;5058599;28;20055;-80
2022/05/06 02:37:38;;;;;;;35.55;17.55;;;;;;;;;;5059547;28;20033;-80
2022/05/06 02:40:04;;;;;;;31.23;18.83;;;;;;;;;;5042420;28;20031;-80
2022/05/06 02:42:30;;;;;;;25.67;16.85;;;;;;;;;;5045148;28;20029;-80
2022/05/06 02:44:55;;;;;;;30.65;18.00;;;;;;;;;;5061960;28;20043;-80
2022/05/06 02:47:20;;;;;;;30.42;16.63;;;;;;;;;;5055510;28;20064;-80
2022/05/06 02:49:46;;;;;;;33.50;18.58;;;;;;;;;;5056050;28;20033;-80
2022/05/06 02:52:11;;;;;;;31.17;17.15;;;;;;;;;;5052243;28;20033;-80
2022/05/06 02:54:37;;;;;;;28.25;16.05;;;;;;;;;;5053086;28;20033;-80
2022/05/06 02:57:02;;;;;;;29.90;17.13;;;;;;;;;;5048090;28;20025;-80
2022/05/06 02:59:31;;;;;;;28.80;18.30;;;;;;;;;;5034481;28;20474;-82
2022/05/06 03:01:56;;;;;;;32.42;16.95;;;;;;;;;;5056368;28;20025;-82
2022/05/06 03:04:21;;;;;;;31.40;17.23;;;;;;;;;;5063705;28;20101;-82
2022/05/06 03:06:47;;;;;;;28.92;16.45;;;;;;;;;;5065993;28;20474;-82
2022/05/06 03:09:13;;;;;;;31.10;18.15;;;;;;;;;;5063083;28;20474;-81
2022/05/06 03:11:38;;;;;;;28.70;16.65;;;;;;;;;;5032809;28;20101;-81
2022/05/06 03:14:04;;;;;;;27.15;16.63;;;;;;;;;;5057330;28;20029;-81
2022/05/06 03:16:29;;;;;;;27.35;15.88;;;;;;;;;;5059343;28;20033;-81
2022/05/06 03:18:54;;;;;;;24.75;15.88;;;;;;;;;;5040783;28;20191;-81
2022/05/06 03:21:19;;;;;;;26.98;14.95;;;;;;;;;;5065208;28;20025;-80
2022/05/06 03:23:50;;;;;;;25.23;15.10;;;;;;;;;;5060002;28;20100;-81
2022/05/06 03:26:16;;;;;;;23.40;13.38;;;;;;;;;;5053625;28;20020;-80
2022/05/06 03:28:42;;;;;;;24.10;13.65;;;;;;;;;;5058690;28;20040;-81
2022/05/06 03:31:07;;;;;;;24.38;14.00;;;;;;;;;;5071907;22;20044;-87
2022/05/06 03:33:33;;;;;;;24.75;14.38;;;;;;;;;;5067162;28;20454;-86
2022/05/06 03:35:59;;;;;;;26.08;14.05;;;;;;;;;;5057223;28;20013;-85
2022/05/06 03:38:24;;;;;;;22.95;14.40;;;;;;;;;;5047597;28;20078;-85
2022/05/06 03:40:50;;;;;;;27.48;14.38;;;;;;;;;;5040888;28;20029;-85
2022/05/06 03:43:16;;;;;;;23.63;14.00;;;;;;;;;;5026124;28;20031;-86
2022/05/06 03:45:41;;;;;;;28.50;15.00;;;;;;;;;;5052873;28;20052;-86
2022/05/06 03:48:53;;;;;;;26.88;14.45;;;;;;;;;;5046345;28;20032;-85
2022/05/06 03:51:22;;;;;;;27.05;14.38;;;;;;;;;;5044671;28;20029;-85
2022/05/06 03:53:55;;;;;;;23.70;15.07;;;;;;;;;;5056825;28;20059;-85
2022/05/06 03:56:24;;;;;;;22.40;13.60;;;;;;;;;;5055570;28;20017;-85
2022/05/06 03:58:51;;;;;;;22.63;13.98;;;;;;;;;;5056694;28;20060;-86
2022/05/06 04:01:19;;;;;;;24.10;13.95;;;;;;;;;;5057885;28;20116;-86
2022/05/06 04:03:45;;;;;;;25.90;15.43;;;;;;;;;;5038921;28;20116;-86
2022/05/06 04:07:08;;;;;;;25.75;14.30;;;;;;;;;;5057566;28;20045;-86
2022/05/06 04:09:33;;;;;;;26.13;14.05;;;;;;;;;;5042356;28;20036;-87
2022/05/06 04:11:59;;;;;;;27.58;15.15;;;;;;;;;;5054969;28;20036;-86
2022/05/06 04:14:25;;;;;;;28.80;14.57;;;;;;;;;;5054191;28;20072;-87
2022/05/06 04:16:51;;;;;;;26.75;14.40;;;;;;;;;;5039956;28;20045;-87
2022/05/06 04:19:17;;;;;;;26.88;14.23;;;;;;;;;;5048910;28;20025;-89
2022/05/06 04:24:26;;;;;;;25.70;14.32;;;;;;;;;;5055948;28;20059;-89
2022/05/06 04:26:51;;;;;;;21.67;14.13;;;;;;;;;;5055055;28;20025;-89
2022/05/06 04:29:17;;;;;;;24.85;13.52;;;;;;;;;;5054575;28;20021;-88
2022/05/06 04:31:43;;;;;;;23.98;13.32;;;;;;;;;;5056072;28;20036;-88
2022/05/06 04:34:08;;;;;;;22.33;11.95;;;;;;;;;;5038477;28;20020;-89
2022/05/06 04:36:34;;;;;;;20.40;12.93;;;;;;;;;;5056691;28;20039;-90
2022/05/06 04:38:59;;;;;;;23.88;13.93;;;;;;;;;;5037820;28;20052;-89
2022/05/06 04:41:24;;;;;;;20.90;13.27;;;;;;;;;;5037665;28;20033;-88
2022/05/06 04:43:50;;;;;;;23.90;13.60;;;;;;;;;;5055446;28;20020;-89
2022/05/06 04:46:16;;;;;;;27.10;14.90;;;;;;;;;;5038739;28;20029;-89
2022/05/06 04:48:41;;;;;;;23.50;13.27;;;;;;;;;;5037673;28;20036;-88
2022/05/06 04:51:09;;;;;;;21.90;13.40;;;;;;;;;;5038180;28;20125;-88
2022/05/06 04:53:35;;;;;;;27.45;14.35;;;;;;;;;;5036746;28;20024;-88
2022/05/06 04:56:01;;;;;;;27.00;14.50;;;;;;;;;;5037794;28;20037;-90
2022/05/06 04:58:28;;;;;;;26.40;15.02;;;;;;;;;;5052866;28;20036;-90
2022/05/06 05:00:53;;;;;;;28.38;14.27;;;;;;;;;;5037162;28;20028;-89
2022/05/06 05:03:20;;;;;;;24.05;13.15;;;;;;;;;;5044195;28;20047;-88
2022/05/06 05:05:46;;;;;;;26.58;13.82;;;;;;;;;;5049774;28;20044;-87
2022/05/06 05:08:11;;;;;;;22.15;14.18;;;;;;;;;;5035744;28;20029;-87
2022/05/06 05:10:36;;;;;;;22.05;13.82;;;;;;;;;;5045455;28;20032;-88
2022/05/06 05:13:02;;;;;;;29.17;15.15;;;;;;;;;;5054541;28;20031;-89
2022/05/06 05:15:40;;;;;;;29.75;15.70;;;;;;;;;;5056073;28;20075;-90
2022/05/06 05:18:07;;;;;;;32.10;15.45;;;;;;;;;;5054295;28;20116;-90
2022/05/06 05:20:35;;;;;;;26.15;16.05;;;;;;;;;;5057260;28;20025;-90
2022/05/06 05:23:01;;;;;;;25.05;15.38;;;;;;;;;;5041344;28;20021;-90
2022/05/06 05:25:26;;;;;;;26.92;15.63;;;;;;;;;;5037388;28;20033;-89
2022/05/06 05:27:52;;;;;;;27.55;15.43;;;;;;;;;;5050889;28;20597;-89
2022/05/06 05:30:18;;;;;;;28.13;15.02;;;;;;;;;;5040780;28;20040;-88
2022/05/06 05:32:51;;;;;;;24.40;15.05;;;;;;;;;;5060530;28;20040;-89
2022/05/06 05:35:59;;;;;;;28.90;14.63;;;;;;;;;;5040246;28;20024;-90
2022/05/06 05:38:24;;;;;;;26.00;14.70;;;;;;;;;;5039209;28;20021;-88
2022/05/06 05:40:50;;;;;;;26.25;13.55;;;;;;;;;;5048064;28;20017;-89
2022/05/06 05:48:43;;;;;;;25.00;13.65;;;;;;;;;;5055666;28;20111;-88
2022/05/06 05:51:09;;;;;;;25.05;15.30;;;;;;;;;;5055805;28;20052;-88
2022/05/06 05:53:35;;;;;;;23.23;14.32;;;;;;;;;;5062683;28;20032;-88
2022/05/06 05:56:00;;;;;;;23.20;14.25;;;;;;;;;;5056523;28;20040;-88
2022/05/06 05:58:26;;;;;;;26.60;13.45;;;;;;;;;;5055608;28;20426;-89
2022/05/06 06:00:52;;;;;;;22.77;13.00;;;;;;;;;;5055207;28;20040;-89
2022/05/06 06:03:17;;;;;;;18.63;11.57;;;;;;;;;;5054745;28;20086;-88
2022/05/06 06:05:44;;;;;;;26.23;12.88;;;;;;;;;;5059996;28;20428;-88
2022/05/06 06:08:09;;;;;;;26.05;12.60;;;;;;;;;;5059268;28;20094;-88
2022/05/06 06:10:34;;;;;;;18.10;12.48;;;;;;;;;;5058804;28;20374;-87
2022/05/06 06:13:04;;;;;;;21.90;12.98;;;;;;;;;;5061148;28;20459;-87
2022/05/06 06:15:29;;;;;;;22.25;13.02;;;;;;;;;;5060957;28;20021;-88
2022/05/06 06:17:55;;;;;;;23.58;13.13;;;;;;;;;;5061816;28;20028;-86
2022/05/06 06:20:21;;;;;;;23.90;12.93;;;;;;;;;;5058139;28;20040;-86
2022/05/06 06:22:47;;;;;;;19.75;12.18;;;;;;;;;;5062435;28;20045;-86
2022/05/06 06:25:13;;;;;;;19.42;12.05;;;;;;;;;;5067318;28;20075;-86
2022/05/06 06:27:38;;;;;;;24.75;12.45;;;;;;;;;;5042082;28;20541;-87
2022/05/06 06:30:04;;;;;;;22.75;12.57;;;;;;;;;;5053146;28;20025;-87
2022/05/06 06:32:29;;;;;;;20.50;13.05;;;;;;;;;;5056941;28;20100;-87
2022/05/06 06:34:55;;;;;;;18.60;12.50;;;;;;;;;;5048959;28;20020;-88
2022/05/06 06:37:21;;;;;;;19.65;12.52;;;;;;;;;;5056360;28;20028;-88
2022/05/06 06:39:47;;;;;;;16.10;12.15;;;;;;;;;;5068121;28;20017;-88
2022/05/06 06:42:12;;;;;;;20.90;12.23;;;;;;;;;;5050525;28;20096;-88
2022/05/06 06:44:37;;;;;;;20.17;13.43;;;;;;;;;;5045490;28;20119;-89
2022/05/06 06:47:09;;;;;;;19.02;12.00;;;;;;;;;;5042618;28;20025;-89
2022/05/06 06:49:36;;;;;;;19.23;10.52;;;;;;;;;;5040219;28;20031;-88
2022/05/06 06:52:02;;;;;;;18.90;10.75;;;;;;;;;;5040523;28;20066;-89
2022/05/06 06:54:28;;;;;;;14.95;10.32;;;;;;;;;;5022858;28;20033;-89
2022/05/06 06:56:53;;;;;;;18.65;9.35;;;;;;;;;;5058068;28;20025;-89
2022/05/06 06:59:19;;;;;;;15.27;9.88;;;;;;;;;;5040632;28;20025;-89
2022/05/06 07:01:44;;;;;;;15.90;8.93;;;;;;;;;;5057486;28;20370;-89
2022/05/06 07:04:10;;;;;;;19.25;10.13;;;;;;;;;;5039635;28;20035;-89
2022/05/06 07:12:03;;;;;;;13.10;9.90;;;;;;;;;;5057720;28;20094;-89
2022/05/06 07:14:29;;;;;;;14.13;8.95;;;;;;;;;;5056330;28;20459;-89
2022/05/06 07:16:55;;;;;;;13.20;8.80;;;;;;;;;;5056078;28;20104;-90
2022/05/06 07:19:23;;;;;;;12.77;8.77;;;;;;;;;;5055862;28;20028;-89
2022/05/06 07:21:52;;;;;;;13.65;8.55;;;;;;;;;;5056393;28;20049;-89
2022/05/06 07:24:19;;;;;;;11.70;8.40;;;;;;;;;;5055908;28;20060;-89
2022/05/06 07:26:48;;;;;;;11.95;8.13;;;;;;;;;;5039743;28;20037;-89
2022/05/06 07:29:13;;;;;;;13.52;8.25;;;;;;;;;;5040604;28;20055;-89
2022/05/06 07:31:41;;;;;;;12.13;7.63;;;;;;;;;;5040966;28;20025;-88
2022/05/06 07:34:07;;;;;;;13.93;7.25;;;;;;;;;;5040517;28;20021;-89
2022/05/06 07:36:32;;;;;;;13.32;7.80;;;;;;;;;;5040939;28;20083;-89
2022/05/06 07:38:59;;;;;;;10.65;7.50;;;;;;;;;;5040874;28;20021;-91
2022/05/06 07:41:25;;;;;;;13.35;7.90;;;;;;;;;;5041137;28;20025;-89
2022/05/06 07:43:51;;;;;;;10.48;7.15;;;;;;;;;;5041709;28;20029;-89
2022/05/06 07:46:16;;;;;;;9.02;6.88;;;;;;;;;;5046728;28;20051;-90
2022/05/06 07:48:42;;;;;;;13.90;7.50;;;;;;;;;;5058319;28;20056;-89
2022/05/06 07:51:08;;;;;;;14.05;8.30;;;;;;;;;;5058800;28;20126;-91
2022/05/06 07:53:33;;;;;;;10.95;7.35;;;;;;;;;;5057733;28;20019;-88
2022/05/06 07:56:00;;;;;;;13.52;7.60;;;;;;;;;;5051912;28;20084;-94
2022/05/06 07:58:25;;;;;;;15.98;7.72;;;;;;;;;;5055500;28;20132;-89
2022/05/06 08:00:51;;;;;;;9.77;7.45;;;;;;;;;;5041531;28;20096;-88
2022/05/06 08:06:02;;;;;;;8.02;6.38;;;;;;;;;;5059070;28;20036;-88
2022/05/06 08:08:28;;;;;;;11.15;7.30;;;;;;;;;;5039690;28;20059;-88
2022/05/06 08:10:54;;;;;;;14.90;7.13;;;;;;;;;;5040225;28;20056;-88
2022/05/06 08:13:20;;;;;;;16.05;8.30;;;;;;;;;;5039586;28;20025;-88
2022/05/06 08:15:47;;;;;;;10.68;6.43;;;;;;;;;;5039498;28;20021;-87
2022/05/06 08:18:15;;;;;;;12.75;7.43;;;;;;;;;;5039224;28;20025;-87
2022/05/06 08:20:41;;;;;;;11.18;7.07;;;;;;;;;;5039069;28;20029;-87
2022/05/06 08:23:07;;;;;;;9.82;6.38;;;;;;;;;;5042861;28;20032;-88
2022/05/06 08:25:33;;;;;;;12.95;6.40;;;;;;;;;;5038227;28;20020;-88
2022/05/06 08:27:58;;;;;;;14.02;6.30;;;;;;;;;;5037342;28;20033;-87
2022/05/06 08:30:24;;;;;;;9.50;6.18;;;;;;;;;;5039000;28;20029;-87
2022/05/06 08:32:51;;;;;;;10.43;6.18;;;;;;;;;;5038089;28;20481;-87
2022/05/06 08:35:17;;;;;;;9.73;5.65;;;;;;;;;;5056758;28;20025;-87
2022/05/06 08:37:47;;;;;;;12.93;6.32;;;;;;;;;;5046611;28;20055;-87
2022/05/06 08:40:23;;;;;;;10.68;6.18;;;;;;;;;;5057087;28;20025;-87
2022/05/06 08:42:49;;;;;;;8.10;6.00;;;;;;;;;;5027408;28;20095;-87
2022/05/06 08:50:52;;;;;;;12.73;6.13;;;;;;;;;;5046935;28;20387;-87
2022/05/06 08:53:20;;;;;;;8.27;5.70;;;;;;;;;;5046181;28;20074;-87
2022/05/06 08:55:46;;;;;;;8.95;6.20;;;;;;;;;;5055727;28;20443;-88
2022/05/06 08:58:11;;;;;;;10.70;6.05;;;;;;;;;;5060814;28;20076;-87
2022/05/06 09:00:37;;;;;;;11.00;5.03;;;;;;;;;;5054206;28;20021;-87
2022/05/06 09:03:02;;;;;;;12.52;5.40;;;;;;;;;;5030591;28;20033;-88
2022/05/06 09:05:28;;;;;;;13.23;5.75;;;;;;;;;;5040832;28;20083;-88
2022/05/06 09:07:58;;;;;;;8.05;5.60;;;;;;;;;;5041871;28;20089;-87
2022/05/06 09:10:25;;;;;;;11.18;5.90;;;;;;;;;;5043335;28;20136;-87
2022/05/06 09:12:53;;;;;;;8.35;5.85;;;;;;;;;;5034997;28;20104;-87
2022/05/06 09:18:07;;;;;;;9.52;5.63;;;;;;;;;;5053222;28;20052;-88
2022/05/06 09:20:33;;;;;;;12.32;5.72;;;;;;;;;;5029594;28;20036;-87
2022/05/06 09:23:00;;;;;;;9.02;5.60;;;;;;;;;;5049848;28;20108;-88
2022/05/06 09:25:51;;;;;;;13.82;5.72;;;;;;;;;;5055404;28;20366;-87
2022/05/06 09:28:31;;;;;;;13.80;5.97;;;;;;;;;;5053778;28;20025;-87
2022/05/06 09:31:00;;;;;;;11.15;5.57;;;;;;;;;;5037123;28;20458;-87
2022/05/06 09:33:28;;;;;;;9.43;5.70;;;;;;;;;;5045506;28;20032;-87
2022/05/06 09:35:54;;;;;;;9.55;5.00;;;;;;;;;;5031894;28;20029;-87
2022/05/06 09:38:21;;;;;;;9.50;5.20;;;;;;;;;;5048135;28;20049;-87
2022/05/06 09:40:47;;;;;;;7.28;5.20;;;;;;;;;;5023336;28;20017;-88
2022/05/06 09:43:17;;;;;;;11.95;6.47;;;;;;;;;;5037143;28;20025;-87
2022/05/06 09:45:44;;;;;;;7.63;4.90;;;;;;;;;;5036126;28;20021;-87
2022/05/06 09:48:13;;;;;;;8.63;5.55;;;;;;;;;;5016454;28;20029;-88
2022/05/06 09:50:40;;;;;;;8.45;4.78;;;;;;;;;;5029996;28;20102;-87
2022/05/06 09:53:08;;;;;;;11.20;5.25;;;;;;;;;;5048884;28;20028;-87
2022/05/06 10:05:42;;;;;;;13.80;5.25;;;;;;;;;;5063396;28;20089;-88
2022/05/06 10:15:38;;;;;;;8.32;4.25;;;;;;;;;;5052888;28;20048;-88
2022/05/06 10:18:09;;;;;;;7.18;4.05;;;;;;;;;;5035437;28;20138;-88
2022/05/06 10:20:46;;;;;;;7.88;4.38;;;;;;;;;;5028180;28;20446;-87
2022/05/06 10:23:15;;;;;;;4.82;3.85;;;;;;;;;;5060995;28;20505;-88
2022/05/06 10:25:43;;;;;;;8.75;5.30;;;;;;;;;;5059530;28;20029;-88
2022/05/06 10:34:07;;;;;;;9.52;3.83;;;;;;;;;;5043495;28;20159;-86
2022/05/06 10:36:47;;;;;;;4.93;3.88;;;;;;;;;;5037000;28;20071;-88
2022/05/06 10:39:36;;;;;;;5.53;3.55;;;;;;;;;;5026488;28;20018;-88
2022/05/06 10:42:36;;;;;;;8.02;3.80;;;;;;;;;;5018821;28;20029;-86
2022/05/06 10:45:22;;;;;;;6.68;3.47;;;;;;;;;;5015197;28;20029;-87
2022/05/06 10:47:48;;;;;;;6.93;3.92;;;;;;;;;;5017111;28;20031;-86
2022/05/06 10:50:24;;;;;;;7.90;4.07;;;;;;;;;;5038009;28;20021;-87
2022/05/06 10:53:06;;;;;;;;;;;;;;;;;;;;;
2022/05/06 10:55:32;;;;;;;8.60;4.57;;;;;;;;;;5061337;28;20118;-87
2022/05/06 10:58:46;;;;;;;10.15;4.45;;;;;;;;;;5036156;28;20053;-87
2022/05/06 11:01:16;;;;;;;8.98;3.95;;;;;;;;;;5024359;28;20033;-87
2022/05/06 11:03:54;;;;;;;7.30;4.20;;;;;;;;;;5040215;28;20017;-88
2022/05/06 11:06:24;;;;;;;8.18;4.50;;;;;;;;;;5058300;28;20370;-88
2022/05/06 11:08:50;;;;;;;6.68;3.92;;;;;;;;;;5043045;28;20371;-88
2022/05/06 11:11:19;;;;;;;6.50;4.07;;;;;;;;;;5057783;28;20036;-89
2022/05/06 11:13:47;;;;;;;7.82;4.30;;;;;;;;;;5042100;28;20045;-88
2022/05/06 11:16:14;;;;;;;7.18;4.28;;;;;;;;;;5042161;28;20505;-88
2022/05/06 11:18:48;;;;;;;6.45;3.50;;;;;;;;;;5037630;28;20103;-88
2022/05/06 11:21:21;;;;;;;6.47;3.78;;;;;;;;;;5028787;28;20051;-88
2022/05/06 11:23:47;;;;;;;6.68;4.57;;;;;;;;;;5032690;28;20041;-88
2022/05/06 11:36:18;;;;;;;8.43;4.20;;;;;;;;;;5019666;28;20045;-87
2022/05/06 11:38:46;;;;;;;8.00;4.20;;;;;;;;;;5041879;28;20092;-89
2022/05/06 11:41:13;;;;;;;7.15;3.97;;;;;;;;;;5053366;28;20515;-88
2022/05/06 11:43:41;;;;;;;4.45;3.25;;;;;;;;;;5032147;28;20040;-88
2022/05/06 11:48:51;;;;;;;10.00;4.45;;;;;;;;;;5051806;28;20032;-87
2022/05/06 11:51:26;;;;;;;5.43;3.58;;;;;;;;;;5059927;28;20025;-87
2022/05/06 11:53:52;;;;;;;6.15;3.58;;;;;;;;;;5055009;28;20013;-88
2022/05/06 12:07:17;;;;;;;3.88;3.00;;;;;;;;;;4978005;28;20073;-88
2022/05/06 12:10:55;;;;;;;6.18;3.85;;;;;;;;;;4968174;28;20159;-88
2022/05/06 12:34:07;;;;;;;7.03;4.18;;;;;;;;;;4899048;29;20047;-87
2022/05/06 12:36:37;;;;;;;7.63;3.53;;;;;;;;;;4913398;29;20035;-87
2022/05/06 12:39:20;;;;;;;5.95;4.05;;;;;;;;;;4949209;28;20096;-88
2022/05/06 12:41:45;;;;;;;7.40;3.65;;;;;;;;;;5042506;28;20029;-87
2022/05/06 12:44:25;;;;;;;6.18;3.97;;;;;;;;;;5056028;28;20390;-88
2022/05/06 12:46:51;;;;;;;7.82;3.70;;;;;;;;;;5054144;28;20033;-87
2022/05/06 12:52:06;;;;;;;7.38;3.80;;;;;;;;;;5054468;28;20028;-87
2022/05/06 12:54:33;;;;;;;5.97;3.45;;;;;;;;;;5017905;28;20028;-87
2022/05/06 12:56:59;;;;;;;6.85;3.88;;;;;;;;;;5041266;28;20160;-87
2022/05/06 12:59:26;;;;;;;8.63;4.03;;;;;;;;;;5023766;28;20029;-87
2022/05/06 13:01:51;;;;;;;6.22;3.70;;;;;;;;;;5053427;28;20364;-87
2022/05/06 13:04:18;;;;;;;6.15;4.03;;;;;;;;;;5056103;28;20544;-87
2022/05/06 13:06:44;;;;;;;7.57;4.05;;;;;;;;;;5045083;28;20053;-87
2022/05/06 13:09:09;;;;;;;6.75;3.70;;;;;;;;;;5028678;28;20029;-88
2022/05/06 13:11:35;;;;;;;6.00;3.83;;;;;;;;;;5041531;28;20128;-88
2022/05/06 13:14:00;;;;;;;5.15;3.83;;;;;;;;;;5036754;28;20021;-87
2022/05/06 13:16:27;;;;;;;5.22;3.35;;;;;;;;;;5038009;28;20539;-87
2022/05/06 13:18:53;;;;;;;6.72;4.22;;;;;;;;;;5047227;28;20028;-87
2022/05/06 13:21:19;;;;;;;7.43;4.60;;;;;;;;;;5044380;28;20100;-87
2022/05/06 13:23:45;;;;;;;7.90;3.88;;;;;;;;;;5045172;28;20029;-87
2022/05/06 13:26:11;;;;;;;5.20;3.80;;;;;;;;;;5052737;28;20044;-86
2022/05/06 13:28:36;;;;;;;5.15;3.65;;;;;;;;;;5057912;28;20029;-85
2022/05/06 13:31:02;;;;;;;6.43;4.32;;;;;;;;;;5047765;28;20409;-85
2022/05/06 13:33:27;;;;;;;10.15;4.32;;;;;;;;;;5056790;28;20020;-86
2022/05/06 13:35:53;;;;;;;6.70;4.45;;;;;;;;;;5040665;28;20648;-86
2022/05/06 13:38:19;;;;;;;7.63;4.60;;;;;;;;;;5027248;28;20039;-85
2022/05/06 13:40:46;;;;;;;7.10;3.70;;;;;;;;;;5039646;28;20152;-85
2022/05/06 13:43:12;;;;;;;5.18;3.75;;;;;;;;;;5055143;28;20020;-85
2022/05/06 13:45:37;;;;;;;9.73;4.05;;;;;;;;;;5049066;28;20043;-85
2022/05/06 13:48:03;;;;;;;6.88;3.75;;;;;;;;;;5035440;28;20029;-85
2022/05/06 13:50:29;;;;;;;8.35;3.75;;;;;;;;;;5038166;28;20126;-83
2022/05/06 13:52:54;;;;;;;7.97;3.95;;;;;;;;;;5045107;28;20066;-85
2022/05/06 13:55:19;;;;;;;6.60;4.25;;;;;;;;;;5032839;28;20024;-85
2022/05/06 14:00:30;;;;;;;6.32;4.40;;;;;;;;;;5061805;28;20107;-87
2022/05/06 14:02:58;;;;;;;7.10;4.43;;;;;;;;;;5050107;28;20031;-85
2022/05/06 14:05:24;;;;;;;7.50;3.85;;;;;;;;;;5048717;28;20044;-86
2022/05/06 14:07:49;;;;;;;11.48;4.07;;;;;;;;;;5043379;28;20029;-86
2022/05/06 14:10:15;;;;;;;5.07;3.83;;;;;;;;;;5032435;28;20033;-86
2022/05/06 14:12:40;;;;;;;7.93;3.70;;;;;;;;;;5063130;28;20122;-86
2022/05/06 14:15:06;;;;;;;6.82;4.10;;;;;;;;;;5065970;28;20036;-85
2022/05/06 14:17:32;;;;;;;6.43;3.30;;;;;;;;;;5046202;28;20513;-85
2022/05/06 14:19:57;;;;;;;5.60;4.00;;;;;;;;;;5038951;28;20052;-85
2022/05/06 14:22:23;;;;;;;6.53;3.58;;;;;;;;;;5047663;28;20032;-84
2022/05/06 14:24:49;;;;;;;8.57;4.10;;;;;;;;;;5058906;28;20041;-85
2022/05/06 14:27:16;;;;;;;13.30;3.88;;;;;;;;;;5051765;28;20076;-84
2022/05/06 14:29:42;;;;;;;7.28;3.80;;;;;;;;;;5052278;28;20075;-85
2022/05/06 14:32:08;;;;;;;7.55;4.03;;;;;;;;;;5060208;28;20052;-86
2022/05/06 14:34:34;;;;;;;5.72;4.05;;;;;;;;;;5059018;28;20029;-84
2022/05/06 14:36:59;;;;;;;6.20;4.65;;;;;;;;;;5060662;28;20132;-84
2022/05/06 14:39:25;;;;;;;5.25;3.80;;;;;;;;;;5062545;28;20025;-86
2022/05/06 14:41:50;;;;;;;7.57;3.80;;;;;;;;;;5066852;28;20062;-86
2022/05/06 14:44:16;;;;;;;7.57;3.50;;;;;;;;;;5057075;28;20420;-86
2022/05/06 14:46:41;;;;;;;7.85;3.70;;;;;;;;;;5067736;28;20051;-86
2022/05/06 14:49:07;;;;;;;6.68;4.10;;;;;;;;;;5045316;28;20026;-85
2022/05/06 14:51:36;;;;;;;8.60;4.07;;;;;;;;;;5027535;28;20082;-86
2022/05/06 14:54:03;;;;;;;6.68;3.78;;;;;;;;;;5041774;28;20024;-85
2022/05/06 14:56:29;;;;;;;7.03;3.88;;;;;;;;;;5047572;28;20113;-82
2022/05/06 14:58:55;;;;;;;6.70;3.42;;;;;;;;;;5065343;28;20021;-83
2022/05/06 15:01:20;;;;;;;6.00;3.72;;;;;;;;;;5028602;28;20029;-85
2022/05/06 15:03:46;;;;;;;8.15;4.10;;;;;;;;;;5047136;28;20176;-85
2022/05/06 15:06:11;;;;;;;5.35;3.47;;;;;;;;;;5051709;28;20557;-85
2022/05/06 15:08:37;;;;;;;6.80;4.20;;;;;;;;;;5062947;28;20094;-86
2022/05/06 15:11:03;;;;;;;6.78;3.72;;;;;;;;;;5067010;28;20024;-85
2022/05/06 15:13:28;;;;;;;7.15;3.42;;;;;;;;;;5064160;28;20029;-86
2022/05/06 15:15:58;;;;;;;5.38;3.30;;;;;;;;;;5038677;28;20036;-86
2022/05/06 15:21:10;;;;;;;7.13;4.05;;;;;;;;;;5041256;28;20367;-86
2022/05/06 15:23:35;;;;;;;5.63;3.70;;;;;;;;;;5040745;28;20202;-86
2022/05/06 15:26:02;;;;;;;8.38;3.47;;;;;;;;;;5055221;28;20467;-87
2022/05/06 15:28:27;;;;;;;6.07;3.35;;;;;;;;;;5078272;28;20119;-86
2022/05/06 15:30:53;;;;;;;6.55;3.30;;;;;;;;;;5061885;28;20037;-87
2022/05/06 15:33:21;;;;;;;5.43;3.72;;;;;;;;;;5061538;28;20029;-87
2022/05/06 15:35:47;;;;;;;4.93;3.70;;;;;;;;;;5057178;28;20486;-86
2022/05/06 15:38:12;;;;;;;5.80;3.67;;;;;;;;;;5035121;28;20025;-87
2022/05/06 15:40:37;;;;;;;5.93;3.67;;;;;;;;;;5033256;28;20091;-87
2022/05/06 15:43:06;;;;;;;4.80;3.28;;;;;;;;;;5057125;28;20035;-86
2022/05/06 15:45:34;;;;;;;5.50;3.58;;;;;;;;;;5058149;28;20017;-87
2022/05/06 15:48:00;;;;;;;10.90;3.70;;;;;;;;;;5057917;28;20324;-86
2022/05/06 15:50:26;;;;;;;13.13;3.65;;;;;;;;;;5058277;28;20031;-86
2022/05/06 15:52:52;;;;;;;8.95;3.65;;;;;;;;;;5058681;28;20107;-86
2022/05/06 15:55:20;;;;;;;9.32;3.92;;;;;;;;;;5055857;28;20116;-86
2022/05/06 15:57:46;;;;;;;4.55;3.15;;;;;;;;;;5056694;28;20032;-86
2022/05/06 16:00:12;;;;;;;5.40;3.20;;;;;;;;;;5045570;28;20025;-87
2022/05/06 16:02:37;;;;;;;6.40;3.63;;;;;;;;;;5051784;28;20021;-86
2022/05/06 16:05:04;;;;;;;9.38;3.55;;;;;;;;;;5048027;28;20547;-86
2022/05/06 16:07:37;;;;;;;4.53;2.92;;;;;;;;;;5042619;28;20051;-86
2022/05/06 16:13:46;;;;;;;3.97;3.10;;;;;;;;;;5062051;28;20040;-86
2022/05/06 16:16:12;;;;;;;5.78;2.67;;;;;;;;;;5050872;28;20056;-86
2022/05/06 16:18:52;;;;;;;5.05;3.35;;;;;;;;;;5072147;28;20021;-86
2022/05/06 16:21:22;;;;;;;7.65;3.30;;;;;;;;;;5078579;28;20037;-86